Impacts TAF Board INFO
FOR SITUATIONAL AWARENESS. NOT TO BE USED FOR FLIGHT PLANNING PURPOSES.
IDs:

KJFK - New York/Kennedy Int, NY, US

Issued at 2334 UTC 23 Jan 2018
Updated at 0200 UTC 24 Jan 2018
Potential Impact None Slight Moderate High
Time<<24/14Z 24/15Z 24/16Z 24/17Z 24/18Z 24/19Z 24/20Z 24/21Z 24/22Z 24/23Z 25/00Z 25/01Z 25/02Z>>
Type PRVL PRVL PRVL PRVL PRVL PRVL PRVL PRVL PRVL PRVL PRVL PRVL PRVL
VIS >6 >6 >6 >6 >6 >6 >6 >6 >6 >6 >6 >6 >6
CIG -- -- -- -- -- -- -- -- -- -- -- -- --
Cover SCT SCT SCT SCT SCT SCT SCT SCT FEW FEW FEW FEW SCT
FltCat VFR VFR VFR VFR VFR VFR VFR VFR VFR VFR VFR VFR VFR
WX -- -- -- -- -- -- -- -- -- -- -- -- --
WDir 290 290 290 290 290 290 290 290 300 300 300 300 320
WSpd 15 15 15 15 15 15 15 15 15 15 15 15 12
WGst 22 22 22 22 22 22 22 22 -- -- -- -- --

Raw TAF
KJFK 232334Z 2400/2506 29016KT P6SM BKN040 BKN070
  FM240100 27014KT P6SM FEW070
  FM240700 27015G22KT P6SM FEW250
  FM241400 29015G22KT P6SM SCT035
  FM242200 30015KT P6SM FEW250
  FM250200 32012KT P6SM SCT250


METAR Board
Radar Display
Forecast Discussion

FOR SITUATIONAL AWARENESS. NOT TO BE USED FOR FLIGHT PLANNING PURPOSES.